Time;durP1;ratioP1;P1;durP2;ratioP2;P2;SDS_P1;SDS_P2;PMS_P1;PMS_P2;Temp;Humidity;BMP_temperature;BMP_pressure;BME280_temperature;BME280_humidity;BME280_pressure;Samples;Min_cycle;Max_cycle;Signal;HPM_P1;HPM_P2
2021/04/15 00:01:21;;;;;;;19.33;13.07;;;;;;;8.39;68.48;99228.12;1721707;81;21191;-58
2021/04/15 00:03:50;;;;;;;22.20;14.73;;;;;;;8.37;68.50;99234.02;1722269;81;21178;-58
2021/04/15 00:06:22;;;;;;;19.97;14.37;;;;;;;8.34;68.64;99231.01;1723962;81;21136;-58
2021/04/15 00:08:49;;;;;;;26.87;14.23;;;;;;;8.27;68.45;99230.40;1725560;81;22109;-57
2021/04/15 00:11:20;;;;;;;21.57;15.17;;;;;;;8.23;68.47;99241.36;1697654;81;21166;-57
2021/04/15 00:13:51;;;;;;;28.03;17.43;;;;;;;8.16;68.57;99236.76;1725244;81;21131;-58
2021/04/15 00:16:20;;;;;;;25.30;17.37;;;;;;;8.05;68.83;99237.72;1721372;81;21169;-58
2021/04/15 00:18:48;;;;;;;24.70;16.30;;;;;;;7.85;69.26;99239.08;1725169;81;21191;-58
2021/04/15 00:21:16;;;;;;;28.70;15.20;;;;;;;7.76;69.55;99236.81;1724357;81;22445;-57
2021/04/15 00:23:44;;;;;;;27.43;15.57;;;;;;;7.69;69.49;99237.56;1724135;81;21203;-58
2021/04/15 00:26:13;;;;;;;23.33;15.93;;;;;;;7.64;69.46;99238.25;1722819;81;21219;-58
2021/04/15 00:28:40;;;;;;;31.90;15.80;;;;;;;7.58;69.65;99232.68;1728221;81;21116;-58
2021/04/15 00:31:09;;;;;;;46.57;20.10;;;;;;;7.58;69.92;99235.36;1721319;81;21213;-57
2021/04/15 00:33:37;;;;;;;43.63;21.93;;;;;;;7.59;70.06;99235.77;1725042;81;21590;-58
2021/04/15 00:36:06;;;;;;;40.57;22.57;;;;;;;7.58;70.14;99226.45;1722114;81;21179;-57
2021/04/15 00:38:35;;;;;;;43.70;22.17;;;;;;;7.59;70.30;99230.41;1731464;81;21530;-58
2021/04/15 00:41:03;;;;;;;44.03;21.87;;;;;;;7.62;70.42;99228.07;1689762;82;21152;-57
2021/04/15 00:43:34;;;;;;;33.90;17.90;;;;;;;7.65;70.48;99228.41;1726793;81;21942;-58
2021/04/15 00:46:22;;;;;;;33.97;19.10;;;;;;;7.67;70.53;99227.84;1725782;81;21993;-57
2021/04/15 00:48:50;;;;;;;31.63;18.33;;;;;;;7.68;70.47;99228.25;1705994;80;21159;-56
2021/04/15 00:51:31;;;;;;;34.73;19.87;;;;;;;7.68;70.42;99225.11;1729534;80;21191;-58
2021/04/15 00:54:03;;;;;;;35.87;16.80;;;;;;;7.69;70.36;99225.98;1726613;80;21118;-58
2021/04/15 00:56:31;;;;;;;26.90;15.20;;;;;;;7.69;70.33;99222.84;1731287;80;21457;-58
2021/04/15 00:58:59;;;;;;;29.13;14.23;;;;;;;7.70;70.31;99221.03;1730689;80;21685;-56
2021/04/15 01:01:26;;;;;;;24.37;14.60;;;;;;;7.71;70.33;99209.37;1731401;80;21148;-58
2021/04/15 01:03:53;;;;;;;33.07;17.20;;;;;;;7.74;70.36;99223.98;1731121;80;21101;-58
2021/04/15 01:06:21;;;;;;;34.33;18.37;;;;;;;7.76;70.41;99213.58;1730558;80;21135;-58
2021/04/15 01:08:48;;;;;;;35.57;18.80;;;;;;;7.78;70.42;99215.72;1727452;80;21123;-57
2021/04/15 01:11:47;;;;;;;37.57;19.47;;;;;;;7.81;70.46;99216.06;1728338;80;21151;-56
2021/04/15 01:15:06;;;;;;;34.13;18.60;;;;;;;7.83;70.45;99213.69;1732174;80;21028;-58
2021/04/15 01:17:49;;;;;;;35.10;19.83;;;;;;;7.84;70.47;99214.56;1729569;80;21017;-58
2021/04/15 01:20:59;;;;;;;37.07;21.30;;;;;;;7.84;70.50;99205.19;1730661;80;21077;-58
2021/04/15 01:23:42;;;;;;;42.20;22.23;;;;;;;7.83;70.46;99206.99;1728405;80;21214;-58
2021/04/15 01:26:33;;;;;;;44.50;23.87;;;;;;;7.76;70.58;99208.22;1728480;80;21727;-58
2021/04/15 01:29:47;;;;;;;43.77;23.17;;;;;;;7.68;70.73;99206.83;1728692;80;21171;-58
2021/04/15 01:32:41;;;;;;;62.23;25.83;;;;;;;7.62;70.95;99206.64;1677416;83;21227;-58
2021/04/15 01:35:31;;;;;;;59.25;25.75;;;;;;;7.55;71.19;99204.72;1671356;83;21254;-58
2021/04/15 01:38:33;;;;;;;60.20;26.57;;;;;;;7.50;71.43;99201.35;1706615;81;21179;-58
2021/04/15 01:41:23;;;;;;;70.33;29.90;;;;;;;7.47;71.68;99194.81;1684704;83;21123;-58
2021/04/15 01:44:04;;;;;;;68.20;33.23;;;;;;;7.47;71.83;99194.81;1702524;82;21277;-58
2021/04/15 01:46:33;;;;;;;60.17;32.73;;;;;;;7.48;71.88;99193.87;1683512;83;21203;-58
2021/04/15 01:49:02;;;;;;;69.10;35.17;;;;;;;7.51;71.91;99195.06;1710777;82;22173;-57
2021/04/15 01:51:46;;;;;;;74.40;37.93;;;;;;;7.50;71.99;99187.96;1673573;82;22339;-58
2021/04/15 01:54:34;;;;;;;77.62;38.05;;;;;;;7.51;72.08;99191.52;1693461;82;22580;-58
2021/04/15 01:57:24;;;;;;;73.17;35.50;;;;;;;7.48;72.10;99184.51;1698056;82;21209;-57
2021/04/15 02:00:12;;;;;;;59.30;32.13;;;;;;;7.46;72.14;99194.88;1699972;82;21195;-57
2021/04/15 02:02:46;;;;;;;59.17;27.73;;;;;;;7.43;72.26;99189.18;1698360;82;22117;-57
2021/04/15 02:05:31;;;;;;;50.03;25.05;;;;;;;7.45;72.35;99191.80;1699238;82;21528;-57
2021/04/15 02:08:02;;;;;;;;;;;;;;;7.47;72.33;99188.12;1673799;82;21216;-57
2021/04/15 02:10:30;;;;;;;44.87;23.97;;;;;;;7.52;72.37;99187.43;1681803;83;20296;-56
2021/04/15 02:13:00;;;;;;;44.43;21.63;;;;;;;7.54;72.38;99182.02;1686514;83;21259;-57
2021/04/15 02:15:33;;;;;;;44.03;21.80;;;;;;;7.59;72.36;99181.32;1658895;83;21214;-57
2021/04/15 02:18:04;;;;;;;46.23;24.03;;;;;;;7.64;72.36;99180.66;1695153;82;21275;-57
2021/04/15 02:20:31;;;;;;;48.03;24.80;;;;;;;7.69;72.33;99177.77;1699158;82;21663;-57
2021/04/15 02:23:28;;;;;;;56.03;25.87;;;;;;;7.72;72.31;99181.19;1666430;83;21250;-58
2021/04/15 02:26:02;;;;;;;46.87;25.50;;;;;;;7.76;72.27;99177.87;1713955;81;21132;-58
2021/04/15 02:28:43;;;;;;;51.20;26.57;;;;;;;7.79;72.16;99184.45;1669010;84;21168;-58
2021/04/15 02:31:31;;;;;;;55.77;28.17;;;;;;;7.75;72.09;99175.66;1700071;82;21621;-58
2021/04/15 02:34:11;;;;;;;56.07;30.50;;;;;;;7.70;72.26;99176.83;1685969;82;22477;-58
2021/04/15 02:36:57;;;;;;;53.93;30.40;;;;;;;7.66;72.32;99174.74;1674351;84;21243;-58
2021/04/15 02:39:31;;;;;;;52.10;27.33;;;;;;;7.63;72.42;99172.70;1671942;84;21656;-57
2021/04/15 02:42:05;;;;;;;47.10;26.07;;;;;;;7.63;72.46;99175.38;1681993;83;21910;-57
2021/04/15 02:44:48;;;;;;;53.03;26.43;;;;;;;7.65;72.53;99169.02;1687876;83;21229;-57
2021/04/15 02:47:23;;;;;;;48.97;25.90;;;;;;;7.64;72.43;99169.95;1686867;83;21217;-57
2021/04/15 02:49:51;;;;;;;46.18;24.05;;;;;;;7.57;72.66;99170.67;1690978;83;21333;-57
2021/04/15 02:52:22;;;;;;;46.13;25.43;;;;;;;7.55;72.80;99166.34;1648148;85;21149;-57
2021/04/15 02:54:56;;;;;;;48.30;25.83;;;;;;;7.55;72.87;99169.02;1646445;85;21340;-56
2021/04/15 02:57:33;;;;;;;41.23;26.00;;;;;;;7.57;72.80;99170.67;1645679;84;21218;-57
2021/04/15 03:00:14;;;;;;;48.10;26.27;;;;;;;7.52;72.79;99166.00;1666767;84;22109;-57
2021/04/15 03:02:52;;;;;;;54.27;29.57;;;;;;;7.48;72.77;99169.78;1674068;84;21201;-57
2021/04/15 03:05:22;;;;;;;49.20;25.87;;;;;;;7.47;72.86;99167.16;1671143;83;21245;-57
2021/04/15 03:07:50;;;;;;;53.90;27.30;;;;;;;7.45;72.92;99161.88;1653227;84;21154;-57
2021/04/15 03:10:23;;;;;;;42.43;24.33;;;;;;;7.46;72.99;99167.63;1656836;84;21115;-57
2021/04/15 03:12:55;;;;;;;40.00;22.90;;;;;;;7.44;72.95;99158.79;1658048;84;21701;-57
2021/04/15 03:15:26;;;;;;;40.17;21.50;;;;;;;7.44;72.99;99159.26;1652742;84;22574;-56
2021/04/15 03:17:57;;;;;;;31.13;18.27;;;;;;;7.44;73.00;99163.27;1656271;84;21199;-57
2021/04/15 03:20:28;;;;;;;32.87;18.30;;;;;;;7.45;73.11;99168.56;1657892;84;21196;-57
2021/04/15 03:23:11;;;;;;;29.07;19.20;;;;;;;7.47;73.24;99168.03;1688615;83;21110;-57
2021/04/15 03:25:40;;;;;;;35.17;21.70;;;;;;;7.51;73.28;99168.75;1677765;83;22272;-57
2021/04/15 03:28:17;;;;;;;39.10;22.30;;;;;;;7.55;73.32;99171.70;1647015;83;21177;-57
2021/04/15 03:30:54;;;;;;;37.57;22.23;;;;;;;7.56;73.30;99170.30;1657496;84;21145;-57
2021/04/15 03:33:35;;;;;;;37.13;21.23;;;;;;;7.57;73.30;99164.48;1655076;85;21426;-58
2021/04/15 03:36:23;;;;;;;29.03;19.33;;;;;;;7.59;73.36;99162.11;1691830;82;21621;-57
2021/04/15 03:38:57;;;;;;;34.70;21.20;;;;;;;7.63;73.38;99168.20;1689373;83;21646;-57
2021/04/15 03:41:31;;;;;;;27.90;16.40;;;;;;;7.66;73.38;99169.85;1684763;83;21534;-58
2021/04/15 03:44:14;;;;;;;27.32;16.87;;;;;;;7.74;73.35;99165.05;1698311;82;21194;-58
2021/04/15 03:47:05;;;;;;;29.53;16.70;;;;;;;7.82;73.30;99168.23;1696146;82;21131;-59
2021/04/15 03:49:39;;;;;;;30.00;16.63;;;;;;;7.91;73.22;99167.31;1677735;83;21175;-58
2021/04/15 03:52:28;;;;;;;27.53;18.10;;;;;;;8.03;73.11;99169.90;1661458;83;22276;-58
2021/04/15 03:55:22;;;;;;;30.30;19.20;;;;;;;8.13;72.95;99169.00;1703999;82;21142;-58
2021/04/15 03:57:53;;;;;;;30.47;18.63;;;;;;;8.22;72.82;99173.45;1700015;82;21146;-58
2021/04/15 04:00:25;;;;;;;39.47;20.63;;;;;;;8.29;72.67;99168.66;1703735;82;21833;-58
2021/04/15 04:02:59;;;;;;;58.00;23.03;;;;;;;8.34;72.59;99176.03;1687508;83;21133;-58
2021/04/15 04:05:40;;;;;;;;;;;;;;;8.39;72.53;99170.47;1672082;84;21377;-58
2021/04/15 04:08:11;;;;;;;44.17;19.90;;;;;;;8.43;72.53;99170.70;1671330;84;20312;-58
2021/04/15 04:10:41;;;;;;;30.53;20.20;;;;;;;8.45;72.57;99168.81;1690218;83;21562;-57
2021/04/15 04:13:23;;;;;;;38.73;21.30;;;;;;;8.47;72.56;99172.30;1673036;82;22199;-57
2021/04/15 04:15:56;;;;;;;26.93;17.37;;;;;;;8.49;72.59;99179.81;1700873;82;21142;-58
2021/04/15 04:18:32;;;;;;;26.00;17.47;;;;;;;8.52;72.66;99175.61;1702350;82;21614;-59
2021/04/15 04:21:07;;;;;;;29.90;15.50;;;;;;;8.56;72.69;99177.22;1695172;82;21183;-59
2021/04/15 04:23:45;;;;;;;33.00;17.40;;;;;;;8.60;72.75;99176.98;1706700;82;21624;-58
2021/04/15 04:26:33;;;;;;;33.20;18.93;;;;;;;8.64;72.87;99178.58;1721747;81;21236;-58
2021/04/15 04:29:25;;;;;;;28.43;19.07;;;;;;;8.70;72.93;99179.61;1716332;81;22794;-59
2021/04/15 04:31:54;;;;;;;35.07;19.87;;;;;;;8.73;72.81;99179.94;1718437;81;22249;-67
2021/04/15 04:34:22;;;;;;;35.33;21.33;;;;;;;8.74;72.86;99181.68;1709926;81;21272;-59
2021/04/15 04:36:51;;;;;;;37.93;21.27;;;;;;;8.74;72.81;99185.70;1697412;82;21209;-59
2021/04/15 04:39:19;;;;;;;41.97;23.60;;;;;;;8.76;72.86;99187.84;1695618;82;21245;-60
2021/04/15 04:42:18;;;;;;;46.70;24.57;;;;;;;8.78;72.88;99181.91;1699658;82;21742;-60
2021/04/15 04:44:58;;;;;;;36.23;20.43;;;;;;;8.79;72.66;99177.41;1702223;82;21366;-60
2021/04/15 04:47:46;;;;;;;38.13;21.07;;;;;;;8.82;72.64;99179.48;1672579;83;21497;-57
2021/04/15 04:50:39;;;;;;;48.57;23.03;;;;;;;8.87;72.60;99178.77;1695290;82;21226;-57
2021/04/15 04:53:09;;;;;;;30.03;19.63;;;;;;;8.93;72.50;99178.95;1706312;82;21221;-59
2021/04/15 04:55:44;;;;;;;23.20;17.33;;;;;;;9.00;72.32;99173.66;1706538;82;21421;-58
2021/04/15 04:58:16;;;;;;;28.70;17.70;;;;;;;9.04;72.22;99176.09;1701935;82;22249;-58
2021/04/15 05:00:51;;;;;;;21.93;16.87;;;;;;;9.10;72.03;99176.27;1698814;82;21581;-58
2021/04/15 05:03:20;;;;;;;27.87;19.23;;;;;;;9.18;71.90;99174.53;1701736;82;21151;-58
2021/04/15 05:05:48;;;;;;;23.13;17.93;;;;;;;9.26;71.86;99172.32;1700974;82;21131;-58
2021/04/15 05:08:22;;;;;;;29.97;18.90;;;;;;;9.34;71.55;99170.09;1700020;82;21633;-57
2021/04/15 05:10:53;;;;;;;27.30;17.93;;;;;;;9.37;71.33;99169.91;1701097;82;22625;-58
2021/04/15 05:13:28;;;;;;;22.47;16.63;;;;;;;9.40;71.18;99170.64;1701084;82;21488;-58
2021/04/15 05:16:02;;;;;;;23.77;15.93;;;;;;;9.47;71.08;99172.05;1700416;82;21154;-58
2021/04/15 05:18:30;;;;;;;27.60;14.33;;;;;;;9.56;70.96;99174.72;1674414;84;21514;-58
2021/04/15 05:21:14;;;;;;;19.33;14.40;;;;;;;9.66;70.91;99173.76;1673075;84;21177;-59
2021/04/15 05:23:53;;;;;;;19.10;14.40;;;;;;;9.76;70.83;99172.32;1645596;84;21577;-58
2021/04/15 05:26:24;;;;;;;21.03;17.63;;;;;;;9.90;70.76;99171.08;1642241;84;21232;-58
2021/04/15 05:28:55;;;;;;;27.43;19.70;;;;;;;10.01;70.47;99170.03;1673219;84;21220;-58
2021/04/15 05:31:25;;;;;;;33.80;23.17;;;;;;;10.12;70.27;99174.82;1647555;84;21182;-58
2021/04/15 05:33:53;;;;;;;48.57;35.00;;;;;;;10.20;70.14;99175.30;1675429;84;21237;-58
2021/04/15 05:36:24;;;;;;;43.67;33.13;;;;;;;10.27;70.00;99165.05;1705539;82;21415;-58
2021/04/15 05:38:54;;;;;;;51.00;36.17;;;;;;;10.33;69.87;99161.53;1709098;82;21538;-58
2021/04/15 05:41:32;;;;;;;41.80;31.23;;;;;;;10.42;69.58;99171.77;1708872;82;21285;-58
2021/04/15 05:44:20;;;;;;;42.00;31.87;;;;;;;10.48;69.37;99163.34;1714406;82;21186;-58
2021/04/15 05:46:50;;;;;;;40.92;30.95;;;;;;;10.55;69.15;99165.20;1707278;82;21638;-59
2021/04/15 05:49:24;;;;;;;33.20;24.00;;;;;;;10.59;68.92;99168.13;1697586;82;21668;-58
2021/04/15 05:52:30;;;;;;;35.07;25.70;;;;;;;10.63;68.69;99165.66;1701073;82;21198;-59
2021/04/15 05:55:11;;;;;;;37.60;25.70;;;;;;;10.71;68.62;99168.77;1700735;82;21178;-61
2021/04/15 05:57:41;;;;;;;29.92;21.52;;;;;;;10.83;68.38;99159.09;1731642;81;21704;-59
2021/04/15 06:00:14;;;;;;;27.13;20.43;;;;;;;10.90;67.97;99161.33;1728687;81;21182;-59
2021/04/15 06:03:16;;;;;;;22.70;18.20;;;;;;;10.96;67.87;99160.13;1731889;81;21363;-60
2021/04/15 06:06:00;;;;;;;21.40;17.85;;;;;;;11.04;67.85;99162.36;1737052;81;21919;-59
2021/04/15 06:08:30;;;;;;;20.65;17.75;;;;;;;11.13;67.49;99159.99;1734393;80;21189;-59
2021/04/15 06:11:41;;;;;;;26.60;20.80;;;;;;;11.20;67.22;99163.18;1755511;80;21208;-58
2021/04/15 06:14:42;;;;;;;26.93;19.30;;;;;;;11.23;67.04;99157.58;1751572;80;21191;-59
2021/04/15 06:17:34;;;;;;;24.32;19.23;;;;;;;11.28;66.70;99164.45;1759962;80;22708;-57
2021/04/15 06:20:24;;;;;;;21.95;19.42;;;;;;;11.32;66.67;99164.64;1753724;80;21182;-57
2021/04/15 06:22:55;;;;;;;22.98;17.50;;;;;;;11.34;66.48;99165.42;1756884;80;21158;-58
2021/04/15 06:25:33;;;;;;;23.07;16.57;;;;;;;11.38;66.32;99158.90;1757614;80;21167;-58
2021/04/15 06:28:05;;;;;;;16.87;13.83;;;;;;;11.42;66.14;99154.17;1733674;81;21551;-58
2021/04/15 06:30:41;;;;;;;21.52;16.95;;;;;;;11.50;66.14;99157.74;1729266;81;21411;-57
2021/04/15 06:33:11;;;;;;;;;;;;;;;11.57;65.96;99157.27;1762840;80;21139;-59
2021/04/15 06:35:38;;;;;;;20.37;15.80;;;;;;;11.63;65.80;99151.52;1756226;80;20276;-58
2021/04/15 06:38:20;;;;;;;16.57;14.38;;;;;;;11.69;65.55;99153.83;1758197;80;21106;-57
2021/04/15 06:41:15;;;;;;;19.17;15.48;;;;;;;11.74;65.43;99153.52;1714533;80;21089;-57
2021/04/15 06:44:03;;;;;;;17.62;14.18;;;;;;;11.79;65.19;99150.11;1752730;80;21529;-58
2021/04/15 06:47:02;;;;;;;17.05;13.48;;;;;;;11.86;64.83;99149.23;1760491;80;21133;-57
2021/04/15 06:50:06;;;;;;;15.72;12.82;;;;;;;11.92;64.42;99149.71;1744613;80;21073;-58
2021/04/15 06:53:10;;;;;;;17.70;14.25;;;;;;;12.00;64.00;99146.05;1753774;80;21094;-57
2021/04/15 06:56:12;;;;;;;14.73;11.40;;;;;;;12.07;63.74;99146.06;1729704;82;22562;-58
2021/04/15 06:59:23;;;;;;;14.78;13.25;;;;;;;12.14;63.55;99149.23;1730333;82;21725;-57
2021/04/15 07:02:10;;;;;;;16.87;12.98;;;;;;;12.22;63.45;99151.43;1732118;81;21139;-57
2021/04/15 07:04:45;;;;;;;13.28;11.05;;;;;;;12.31;62.76;99158.94;1729005;82;21153;-58
2021/04/15 07:07:34;;;;;;;18.67;11.33;;;;;;;12.39;62.17;99151.21;1708831;82;21074;-57
2021/04/15 07:10:25;;;;;;;14.63;12.90;;;;;;;12.49;61.94;99152.34;1665835;83;21115;-57
2021/04/15 07:13:21;;;;;;;15.03;12.35;;;;;;;12.59;61.59;99156.15;1720364;81;21132;-57
2021/04/15 07:16:09;;;;;;;15.55;12.45;;;;;;;12.69;61.11;99154.58;1696160;83;27114;-57
2021/04/15 07:19:20;;;;;;;12.95;10.85;;;;;;;12.77;60.67;99154.94;1695897;82;21680;-57
2021/04/15 07:22:05;;;;;;;13.15;10.58;;;;;;;12.81;60.34;99155.61;1687433;81;21166;-58
2021/04/15 07:25:17;;;;;;;10.60;8.70;;;;;;;12.91;59.86;99151.81;1639676;85;21968;-57
2021/04/15 07:28:11;;;;;;;10.53;9.33;;;;;;;13.00;59.42;99151.20;1602708;87;22188;-58
2021/04/15 07:31:06;;;;;;;11.33;10.23;;;;;;;13.10;59.38;99142.34;1621828;86;21259;-58
2021/04/15 07:34:17;;;;;;;13.85;12.13;;;;;;;13.21;58.81;99147.05;1611129;87;21638;-58
2021/04/15 07:37:09;;;;;;;18.37;15.10;;;;;;;13.31;58.65;99150.86;1610789;87;21131;-57
2021/04/15 07:40:03;;;;;;;26.90;24.07;;;;;;;13.41;58.38;99145.69;1610390;87;21300;-57
2021/04/15 07:42:54;;;;;;;23.30;20.80;;;;;;;13.49;58.25;99151.43;1609542;87;22251;-57
2021/04/15 07:45:32;;;;;;;26.23;19.87;;;;;;;13.57;58.18;99145.87;1535675;90;21685;-58
2021/04/15 07:48:10;;;;;;;22.50;16.27;;;;;;;13.70;57.92;99148.55;1607301;87;21201;-59
2021/04/15 07:50:59;;;;;;;16.35;14.55;;;;;;;13.83;57.43;99150.80;1622738;86;21217;-59
2021/04/15 07:54:15;;;;;;;17.00;8.55;;;;;;;13.98;57.07;99142.06;1608367;87;21194;-60
2021/04/15 07:57:29;;;;;;;7.78;4.85;;;;;;;14.14;56.20;99141.33;1608098;87;21436;-60
2021/04/15 08:00:14;;;;;;;8.73;7.92;;;;;;;14.29;54.83;99138.85;1586796;87;21753;-60
2021/04/15 08:03:33;;;;;;;21.40;10.45;;;;;;;14.45;54.25;99133.73;1607440;87;21763;-60
2021/04/15 08:06:26;;;;;;;13.20;7.60;;;;;;;14.58;54.27;99131.83;1609478;87;21216;-59
2021/04/15 08:09:49;;;;;;;8.45;7.25;;;;;;;14.72;53.81;99135.22;1609453;87;21129;-59
2021/04/15 08:12:44;;;;;;;12.03;7.33;;;;;;;14.84;52.86;99133.94;1608243;87;21167;-56
2021/04/15 08:15:33;;;;;;;12.80;7.10;;;;;;;14.87;51.75;99133.23;1605731;87;21226;-59
2021/04/15 08:18:31;;;;;;;10.53;9.43;;;;;;;14.84;51.64;99132.09;1609344;87;21692;-59
2021/04/15 08:21:34;;;;;;;9.10;8.20;;;;;;;14.88;51.63;99124.13;1864124;75;22669;-58
2021/04/15 08:24:40;;;;;;;;;;;;;;;14.87;51.79;99131.87;1813426;76;21158;-58
2021/04/15 08:27:45;;;;;;;8.20;7.50;;;;;;;14.92;51.33;99126.96;1836601;76;21638;-57
2021/04/15 08:30:50;;;;;;;8.23;7.53;;;;;;;14.94;50.82;99120.94;1839677;76;21024;-58
2021/04/15 08:33:38;;;;;;;7.35;6.45;;;;;;;14.95;51.01;99117.74;1840279;76;21013;-59
2021/04/15 08:36:23;;;;;;;7.37;6.47;;;;;;;14.98;51.33;99125.13;1841329;76;22038;-58
2021/04/15 08:39:10;;;;;;;7.65;6.47;;;;;;;15.03;51.12;99120.24;1839755;77;21036;-58
2021/04/15 08:42:18;;;;;;;10.72;7.00;;;;;;;15.07;50.53;99124.43;1835725;76;21363;-58
2021/04/15 08:45:27;;;;;;;10.13;8.03;;;;;;;15.08;49.67;99129.36;1810850;77;21009;-58
2021/04/15 08:48:40;;;;;;;9.80;8.90;;;;;;;15.00;50.12;99120.47;1748887;80;21640;-58
2021/04/15 08:51:31;;;;;;;10.05;7.55;;;;;;;15.05;50.56;99118.29;1751259;80;21257;-58
2021/04/15 08:54:50;;;;;;;9.55;8.05;;;;;;;15.11;50.64;99115.59;1781262;78;21177;-57
2021/04/15 08:57:35;;;;;;;8.90;8.10;;;;;;;15.14;50.26;99118.91;1745056;80;21461;-57
2021/04/15 09:00:25;;;;;;;8.73;8.03;;;;;;;15.13;50.27;99117.70;1744890;80;21512;-58
2021/04/15 09:03:34;;;;;;;9.63;8.60;;;;;;;15.09;50.31;99116.19;1781641;78;21178;-58
2021/04/15 09:06:25;;;;;;;10.03;8.30;;;;;;;15.06;50.62;99115.92;1779098;78;21184;-57
2021/04/15 09:09:21;;;;;;;10.60;9.73;;;;;;;15.12;49.69;99107.83;1783885;78;21174;-57
2021/04/15 09:12:17;;;;;;;10.82;9.88;;;;;;;15.12;49.69;99107.83;1782658;78;21493;-57
2021/04/15 09:15:33;;;;;;;9.03;8.15;;;;;;;15.07;49.04;99107.30;1783623;78;21229;-58
2021/04/15 09:18:41;;;;;;;8.90;8.10;;;;;;;14.96;49.31;99100.51;1751825;80;21395;-57
2021/04/15 09:21:19;;;;;;;9.20;8.13;;;;;;;14.95;49.82;99110.97;1750386;80;21150;-58
2021/04/15 09:24:15;;;;;;;15.13;9.70;;;;;;;14.95;49.46;99094.22;1755423;80;21415;-58
2021/04/15 09:27:10;;;;;;;6.78;6.28;;;;;;;15.01;49.31;99096.94;1720244;79;21114;-58
2021/04/15 09:30:06;;;;;;;8.95;8.13;;;;;;;15.06;49.08;99094.73;1759456;79;21142;-58
2021/04/15 09:32:54;;;;;;;8.85;6.78;;;;;;;15.09;49.08;99089.08;1728532;80;21143;-58
2021/04/15 09:35:36;;;;;;;11.05;9.00;;;;;;;15.11;49.04;99096.13;1732262;79;21122;-58
2021/04/15 09:38:48;;;;;;;7.30;6.70;;;;;;;15.20;49.02;99090.48;1755755;80;21419;-58
2021/04/15 09:41:51;;;;;;;9.90;9.20;;;;;;;15.29;48.49;99087.55;1758827;80;21804;-58
2021/04/15 09:44:39;;;;;;;8.45;7.75;;;;;;;15.37;48.32;99083.75;1731822;80;21146;-58
2021/04/15 09:47:41;;;;;;;9.20;8.40;;;;;;;15.42;48.22;99081.52;1736260;79;21491;-57
2021/04/15 09:50:52;;;;;;;7.22;6.72;;;;;;;15.46;46.99;99081.67;1753745;79;21126;-58
2021/04/15 09:53:49;;;;;;;7.72;7.12;;;;;;;15.46;46.99;99081.67;1754966;79;21581;-58
2021/04/15 09:56:39;;;;;;;6.33;5.85;;;;;;;15.45;46.63;99078.58;1777442;80;22218;-59
2021/04/15 09:59:55;;;;;;;7.42;6.90;;;;;;;15.51;47.03;99077.59;1756230;79;21653;-59
2021/04/15 10:03:03;;;;;;;7.83;7.10;;;;;;;15.57;47.04;99074.08;1756525;79;21402;-59
2021/04/15 10:06:20;;;;;;;6.12;5.72;;;;;;;15.57;47.04;99074.08;1772458;80;21487;-59
2021/04/15 10:09:14;;;;;;;9.60;5.77;;;;;;;15.62;46.72;99077.28;1758039;79;21419;-59
2021/04/15 10:12:11;;;;;;;6.70;5.85;;;;;;;15.65;46.14;99076.52;1769813;80;21802;-59
2021/04/15 10:14:56;;;;;;;6.50;5.83;;;;;;;15.66;46.42;99074.19;1773656;79;21820;-59
2021/04/15 10:18:09;;;;;;;7.15;6.45;;;;;;;15.66;45.99;99072.83;1752116;79;21182;-59
2021/04/15 10:20:55;;;;;;;7.80;6.65;;;;;;;15.64;45.50;99077.53;1691172;83;21216;-59
2021/04/15 10:23:56;;;;;;;11.97;9.78;;;;;;;15.60;45.48;99073.81;1692380;82;21846;-59
2021/04/15 10:26:30;;;;;;;8.90;8.10;;;;;;;15.58;45.86;99073.94;1742232;79;21188;-59
2021/04/15 10:29:30;;;;;;;7.87;7.22;;;;;;;15.53;46.45;99074.77;1772110;80;21194;-57
2021/04/15 10:34:51;;;;;;;7.23;6.67;;;;;;;15.46;46.49;99068.11;1796354;78;22474;-57
2021/04/15 10:37:46;;;;;;;9.08;8.43;;;;;;;15.46;46.49;99068.11;1594634;87;21025;-59
2021/04/15 10:40:55;;;;;;;7.30;6.70;;;;;;;15.46;46.79;99071.69;1563628;89;21403;-60
2021/04/15 10:44:19;;;;;;;7.42;6.58;;;;;;;15.47;46.51;99070.70;1569810;89;21408;-59
2021/04/15 10:46:57;;;;;;;8.48;7.42;;;;;;;15.46;46.74;99068.11;1563883;89;21659;-60
2021/04/15 10:49:50;;;;;;;8.60;7.65;;;;;;;15.47;46.69;99074.77;1563664;89;21381;-59
2021/04/15 10:52:57;;;;;;;8.90;8.10;;;;;;;15.48;46.53;99075.12;1590701;88;21399;-59
2021/04/15 10:55:41;;;;;;;8.40;7.70;;;;;;;15.40;46.30;99073.50;1565644;88;21609;-59
2021/04/15 10:58:23;;;;;;;8.43;7.65;;;;;;;15.40;46.30;99073.50;1563427;89;21237;-59
2021/04/15 11:01:27;;;;;;;15.57;8.37;;;;;;;15.41;46.40;99066.23;1819043;76;23311;-56
2021/04/15 11:03:55;;;;;;;;;;;;;;;15.36;46.50;99073.39;1805268;77;21005;-59
2021/04/15 11:06:45;;;;;;;6.65;6.05;;;;;;;15.35;46.43;99070.80;1804441;77;21983;-58
2021/04/15 11:09:36;;;;;;;6.83;6.22;;;;;;;15.31;46.79;99075.58;1801734;77;21032;-59
2021/04/15 11:12:17;;;;;;;9.95;7.72;;;;;;;15.28;46.99;99083.11;1798880;77;21404;-59
2021/04/15 11:14:56;;;;;;;8.40;7.30;;;;;;;15.25;47.38;99075.20;1801036;77;21107;-57
2021/04/15 11:17:32;;;;;;;8.18;7.40;;;;;;;15.14;47.90;99075.53;1800614;77;21211;-58
2021/04/15 11:20:25;;;;;;;8.38;6.90;;;;;;;15.00;48.22;99087.08;1800626;77;22303;-59
2021/04/15 11:23:02;;;;;;;7.03;6.45;;;;;;;14.86;48.59;99084.57;1806521;77;21419;-59
2021/04/15 11:25:41;;;;;;;7.95;7.15;;;;;;;14.74;49.15;99082.29;1802838;77;21197;-59
2021/04/15 11:28:26;;;;;;;8.43;6.45;;;;;;;14.65;49.65;99079.78;1803459;77;21459;-59
2021/04/15 11:31:12;;;;;;;11.05;6.72;;;;;;;14.57;50.14;99086.27;1806958;77;20982;-59
2021/04/15 11:33:52;;;;;;;9.53;7.33;;;;;;;14.51;50.24;99077.75;1800540;77;21776;-59
2021/04/15 11:36:27;;;;;;;6.50;5.22;;;;;;;14.46;50.40;99080.78;1799099;77;21198;-59
2021/04/15 11:39:10;;;;;;;8.30;6.65;;;;;;;14.43;50.24;99078.33;1772051;77;21206;-58
2021/04/15 11:42:02;;;;;;;7.08;6.47;;;;;;;14.42;50.45;99074.38;1795679;77;22160;-59
2021/04/15 11:44:52;;;;;;;8.45;7.40;;;;;;;14.42;50.40;99070.31;1774787;78;21162;-58
2021/04/15 11:47:26;;;;;;;10.85;8.10;;;;;;;14.41;50.61;99068.09;1778010;78;22346;-59
2021/04/15 11:50:21;;;;;;;8.65;7.55;;;;;;;14.44;51.03;99073.78;1771763;78;21530;-59
2021/04/15 11:52:52;;;;;;;12.37;9.70;;;;;;;14.48;51.10;99069.36;1774552;78;21134;-59
2021/04/15 11:55:32;;;;;;;9.05;7.62;;;;;;;14.54;51.12;99078.40;1772021;78;21606;-59
2021/04/15 11:58:05;;;;;;;11.68;9.50;;;;;;;14.58;51.30;99075.82;1770999;78;21179;-59
2021/04/15 12:00:40;;;;;;;10.48;9.50;;;;;;;14.65;51.90;99073.50;1786574;78;22173;-59
2021/04/15 12:03:14;;;;;;;7.28;6.62;;;;;;;14.71;51.69;99074.42;1785370;78;21594;-58
2021/04/15 12:05:45;;;;;;;11.75;8.30;;;;;;;14.78;51.43;99076.16;1788005;78;21185;-59
2021/04/15 12:08:24;;;;;;;13.65;7.85;;;;;;;14.83;51.02;99072.60;1785711;78;21106;-59
2021/04/15 12:11:24;;;;;;;8.28;7.35;;;;;;;14.87;50.76;99068.69;1789557;78;21623;-59
2021/04/15 12:14:11;;;;;;;9.18;8.28;;;;;;;14.93;50.21;99073.63;1785355;78;21198;-59
2021/04/15 12:17:32;;;;;;;9.55;8.45;;;;;;;14.93;50.21;99073.63;1787526;78;21215;-59
2021/04/15 12:20:30;;;;;;;13.32;9.00;;;;;;;14.94;50.48;99076.23;1781234;78;21485;-58
2021/04/15 12:23:33;;;;;;;9.20;7.97;;;;;;;14.98;50.25;99067.35;1787320;78;21138;-56
2021/04/15 12:26:19;;;;;;;11.75;9.05;;;;;;;14.97;50.62;99065.13;1780864;78;21544;-57
2021/04/15 12:29:03;;;;;;;;;;;;;;;14.99;50.18;99069.09;1790628;78;20968;-57
2021/04/15 12:31:53;;;;;;;7.40;6.67;;;;;;;15.00;49.98;99059.48;1786356;78;20288;-58
2021/04/15 12:34:55;;;;;;;10.80;8.30;;;;;;;15.03;49.94;99059.27;1787626;78;21106;-57
2021/04/15 12:37:32;;;;;;;7.72;7.12;;;;;;;15.07;49.84;99059.38;1781760;78;21587;-58
2021/04/15 12:40:27;;;;;;;8.58;7.78;;;;;;;15.07;49.64;99049.89;1786026;78;21128;-58
2021/04/15 12:43:01;;;;;;;11.47;7.80;;;;;;;15.10;49.01;99051.52;1791163;78;22043;-57
2021/04/15 12:45:39;;;;;;;11.15;8.30;;;;;;;15.12;48.70;99047.71;1792370;78;21114;-58
2021/04/15 12:48:08;;;;;;;8.85;7.95;;;;;;;15.13;48.86;99043.16;1787676;78;21130;-57
2021/04/15 12:50:35;;;;;;;11.18;8.88;;;;;;;15.13;49.36;99040.44;1787132;78;21083;-57